sensor_id;sensor_type;location;lat;lon;timestamp;P1;durP1;ratioP1;P2;durP2;ratioP2
15679;SDS011;15488;48.114;11.532;2023-08-31T00:00:23;2.83;;;1.97;;
15679;SDS011;15488;48.114;11.532;2023-08-31T00:02:51;1.50;;;1.40;;
15679;SDS011;15488;48.114;11.532;2023-08-31T00:05:20;1.70;;;1.60;;
15679;SDS011;15488;48.114;11.532;2023-08-31T00:07:47;1.77;;;1.67;;
15679;SDS011;15488;48.114;11.532;2023-08-31T00:10:14;1.80;;;1.70;;
15679;SDS011;15488;48.114;11.532;2023-08-31T00:12:42;2.60;;;1.70;;
15679;SDS011;15488;48.114;11.532;2023-08-31T00:15:10;1.77;;;1.67;;
15679;SDS011;15488;48.114;11.532;2023-08-31T00:17:39;1.63;;;1.53;;
15679;SDS011;15488;48.114;11.532;2023-08-31T00:20:08;1.80;;;1.70;;
15679;SDS011;15488;48.114;11.532;2023-08-31T00:22:38;2.10;;;1.90;;
15679;SDS011;15488;48.114;11.532;2023-08-31T00:25:05;1.80;;;1.70;;
15679;SDS011;15488;48.114;11.532;2023-08-31T00:27:34;1.70;;;1.60;;
15679;SDS011;15488;48.114;11.532;2023-08-31T00:30:03;1.70;;;1.60;;
15679;SDS011;15488;48.114;11.532;2023-08-31T00:32:33;1.90;;;1.80;;
15679;SDS011;15488;48.114;11.532;2023-08-31T00:35:01;4.27;;;1.97;;
15679;SDS011;15488;48.114;11.532;2023-08-31T00:37:29;2.23;;;1.77;;
15679;SDS011;15488;48.114;11.532;2023-08-31T00:39:57;2.23;;;1.70;;
15679;SDS011;15488;48.114;11.532;2023-08-31T00:42:25;2.00;;;1.90;;
15679;SDS011;15488;48.114;11.532;2023-08-31T00:44:54;2.43;;;1.90;;
15679;SDS011;15488;48.114;11.532;2023-08-31T00:47:22;2.27;;;1.90;;
15679;SDS011;15488;48.114;11.532;2023-08-31T00:49:49;1.83;;;1.73;;
15679;SDS011;15488;48.114;11.532;2023-08-31T00:52:19;2.00;;;1.70;;
15679;SDS011;15488;48.114;11.532;2023-08-31T00:54:47;1.90;;;1.80;;
15679;SDS011;15488;48.114;11.532;2023-08-31T00:57:17;1.80;;;1.70;;
15679;SDS011;15488;48.114;11.532;2023-08-31T00:59:44;2.83;;;1.80;;
15679;SDS011;15488;48.114;11.532;2023-08-31T01:02:14;2.57;;;1.90;;
15679;SDS011;15488;48.114;11.532;2023-08-31T01:04:48;1.70;;;1.60;;
15679;SDS011;15488;48.114;11.532;2023-08-31T01:07:29;2.10;;;1.90;;
15679;SDS011;15488;48.114;11.532;2023-08-31T01:10:08;2.07;;;1.60;;
15679;SDS011;15488;48.114;11.532;2023-08-31T01:12:42;2.07;;;1.90;;
15679;SDS011;15488;48.114;11.532;2023-08-31T01:15:16;1.90;;;1.80;;
15679;SDS011;15488;48.114;11.532;2023-08-31T01:17:46;1.87;;;1.77;;
15679;SDS011;15488;48.114;11.532;2023-08-31T01:20:17;1.90;;;1.80;;
15679;SDS011;15488;48.114;11.532;2023-08-31T01:22:57;1.90;;;1.80;;
15679;SDS011;15488;48.114;11.532;2023-08-31T01:25:30;1.70;;;1.60;;
15679;SDS011;15488;48.114;11.532;2023-08-31T01:27:58;2.07;;;1.70;;
15679;SDS011;15488;48.114;11.532;2023-08-31T01:30:29;2.00;;;1.80;;
15679;SDS011;15488;48.114;11.532;2023-08-31T01:32:57;3.20;;;1.80;;
15679;SDS011;15488;48.114;11.532;2023-08-31T01:35:24;2.37;;;1.70;;
15679;SDS011;15488;48.114;11.532;2023-08-31T01:37:54;1.70;;;1.60;;
15679;SDS011;15488;48.114;11.532;2023-08-31T01:40:25;2.73;;;1.70;;
15679;SDS011;15488;48.114;11.532;2023-08-31T01:43:01;1.90;;;1.80;;
15679;SDS011;15488;48.114;11.532;2023-08-31T01:45:31;1.93;;;1.83;;
15679;SDS011;15488;48.114;11.532;2023-08-31T01:48:00;1.80;;;1.70;;
15679;SDS011;15488;48.114;11.532;2023-08-31T01:50:27;1.77;;;1.67;;
15679;SDS011;15488;48.114;11.532;2023-08-31T01:52:55;2.87;;;1.80;;
15679;SDS011;15488;48.114;11.532;2023-08-31T01:55:22;1.73;;;1.63;;
15679;SDS011;15488;48.114;11.532;2023-08-31T01:57:50;2.00;;;1.80;;
15679;SDS011;15488;48.114;11.532;2023-08-31T02:00:19;1.90;;;1.70;;
15679;SDS011;15488;48.114;11.532;2023-08-31T02:02:47;1.90;;;1.80;;
15679;SDS011;15488;48.114;11.532;2023-08-31T02:05:14;1.90;;;1.80;;
15679;SDS011;15488;48.114;11.532;2023-08-31T02:07:42;1.93;;;1.67;;
15679;SDS011;15488;48.114;11.532;2023-08-31T02:10:09;2.67;;;1.77;;
15679;SDS011;15488;48.114;11.532;2023-08-31T02:12:37;1.97;;;1.60;;
15679;SDS011;15488;48.114;11.532;2023-08-31T02:15:04;1.87;;;1.77;;
15679;SDS011;15488;48.114;11.532;2023-08-31T02:17:33;2.30;;;1.93;;
15679;SDS011;15488;48.114;11.532;2023-08-31T02:20:01;2.20;;;1.80;;
15679;SDS011;15488;48.114;11.532;2023-08-31T02:22:29;1.70;;;1.60;;
15679;SDS011;15488;48.114;11.532;2023-08-31T02:24:58;2.47;;;2.07;;
15679;SDS011;15488;48.114;11.532;2023-08-31T02:27:26;1.83;;;1.73;;
15679;SDS011;15488;48.114;11.532;2023-08-31T02:29:53;2.43;;;1.80;;
15679;SDS011;15488;48.114;11.532;2023-08-31T02:32:21;3.37;;;2.13;;
15679;SDS011;15488;48.114;11.532;2023-08-31T02:34:49;3.00;;;2.20;;
15679;SDS011;15488;48.114;11.532;2023-08-31T02:37:17;2.70;;;2.50;;
15679;SDS011;15488;48.114;11.532;2023-08-31T02:39:44;2.60;;;2.40;;
15679;SDS011;15488;48.114;11.532;2023-08-31T02:42:13;3.43;;;2.30;;
15679;SDS011;15488;48.114;11.532;2023-08-31T02:44:41;3.50;;;2.47;;
15679;SDS011;15488;48.114;11.532;2023-08-31T02:47:08;3.43;;;2.57;;
15679;SDS011;15488;48.114;11.532;2023-08-31T02:49:35;3.03;;;2.50;;
15679;SDS011;15488;48.114;11.532;2023-08-31T02:52:04;2.57;;;2.37;;
15679;SDS011;15488;48.114;11.532;2023-08-31T02:54:32;2.47;;;2.27;;
15679;SDS011;15488;48.114;11.532;2023-08-31T02:56:59;3.37;;;2.47;;
15679;SDS011;15488;48.114;11.532;2023-08-31T02:59:27;2.73;;;2.53;;
15679;SDS011;15488;48.114;11.532;2023-08-31T03:01:54;3.17;;;2.57;;
15679;SDS011;15488;48.114;11.532;2023-08-31T03:04:22;2.63;;;2.40;;
15679;SDS011;15488;48.114;11.532;2023-08-31T03:06:49;2.40;;;2.20;;
15679;SDS011;15488;48.114;11.532;2023-08-31T03:09:18;3.43;;;2.63;;
15679;SDS011;15488;48.114;11.532;2023-08-31T03:11:46;2.60;;;2.40;;
15679;SDS011;15488;48.114;11.532;2023-08-31T03:14:13;2.73;;;2.30;;
15679;SDS011;15488;48.114;11.532;2023-08-31T03:16:41;3.77;;;2.47;;
15679;SDS011;15488;48.114;11.532;2023-08-31T03:19:08;2.10;;;2.00;;
15679;SDS011;15488;48.114;11.532;2023-08-31T03:21:35;2.23;;;2.03;;
15679;SDS011;15488;48.114;11.532;2023-08-31T03:24:03;1.97;;;1.87;;
15679;SDS011;15488;48.114;11.532;2023-08-31T03:26:32;1.90;;;1.80;;
15679;SDS011;15488;48.114;11.532;2023-08-31T03:29:00;1.67;;;1.57;;
15679;SDS011;15488;48.114;11.532;2023-08-31T03:31:27;2.40;;;1.70;;
15679;SDS011;15488;48.114;11.532;2023-08-31T03:33:57;2.13;;;1.60;;
15679;SDS011;15488;48.114;11.532;2023-08-31T03:36:24;2.40;;;1.50;;
15679;SDS011;15488;48.114;11.532;2023-08-31T03:38:52;1.60;;;1.50;;
15679;SDS011;15488;48.114;11.532;2023-08-31T03:41:19;1.50;;;1.40;;
15679;SDS011;15488;48.114;11.532;2023-08-31T03:43:48;1.60;;;1.50;;
15679;SDS011;15488;48.114;11.532;2023-08-31T03:46:16;1.40;;;1.30;;
15679;SDS011;15488;48.114;11.532;2023-08-31T03:48:43;2.13;;;1.40;;
15679;SDS011;15488;48.114;11.532;2023-08-31T03:51:11;1.70;;;1.53;;
15679;SDS011;15488;48.114;11.532;2023-08-31T03:53:38;1.67;;;1.57;;
15679;SDS011;15488;48.114;11.532;2023-08-31T03:56:05;3.00;;;1.40;;
15679;SDS011;15488;48.114;11.532;2023-08-31T03:58:33;3.10;;;1.73;;
15679;SDS011;15488;48.114;11.532;2023-08-31T04:01:02;1.53;;;1.43;;
15679;SDS011;15488;48.114;11.532;2023-08-31T04:03:30;2.13;;;1.70;;
15679;SDS011;15488;48.114;11.532;2023-08-31T04:05:57;1.70;;;1.60;;
15679;SDS011;15488;48.114;11.532;2023-08-31T04:08:25;2.03;;;1.80;;
15679;SDS011;15488;48.114;11.532;2023-08-31T04:10:52;1.73;;;1.50;;
15679;SDS011;15488;48.114;11.532;2023-08-31T04:13:20;1.60;;;1.50;;
15679;SDS011;15488;48.114;11.532;2023-08-31T04:15:47;2.87;;;1.50;;
15679;SDS011;15488;48.114;11.532;2023-08-31T04:18:16;1.50;;;1.40;;
15679;SDS011;15488;48.114;11.532;2023-08-31T04:20:47;1.63;;;1.53;;
15679;SDS011;15488;48.114;11.532;2023-08-31T04:23:17;1.70;;;1.60;;
15679;SDS011;15488;48.114;11.532;2023-08-31T04:25:44;1.73;;;1.50;;
15679;SDS011;15488;48.114;11.532;2023-08-31T04:28:12;2.60;;;1.70;;
15679;SDS011;15488;48.114;11.532;2023-08-31T04:30:40;1.43;;;1.33;;
15679;SDS011;15488;48.114;11.532;2023-08-31T04:33:08;2.13;;;1.43;;
15679;SDS011;15488;48.114;11.532;2023-08-31T04:35:37;2.33;;;2.00;;
15679;SDS011;15488;48.114;11.532;2023-08-31T04:38:04;1.60;;;1.50;;
15679;SDS011;15488;48.114;11.532;2023-08-31T04:40:31;2.30;;;1.77;;
15679;SDS011;15488;48.114;11.532;2023-08-31T04:42:59;1.70;;;1.60;;
15679;SDS011;15488;48.114;11.532;2023-08-31T04:45:26;1.80;;;1.60;;
15679;SDS011;15488;48.114;11.532;2023-08-31T04:47:54;3.37;;;1.90;;
15679;SDS011;15488;48.114;11.532;2023-08-31T04:50:21;2.07;;;1.80;;
15679;SDS011;15488;48.114;11.532;2023-08-31T04:52:50;1.60;;;1.50;;
15679;SDS011;15488;48.114;11.532;2023-08-31T04:55:18;1.83;;;1.73;;
15679;SDS011;15488;48.114;11.532;2023-08-31T04:57:48;1.80;;;1.60;;
15679;SDS011;15488;48.114;11.532;2023-08-31T05:00:16;2.20;;;1.87;;
15679;SDS011;15488;48.114;11.532;2023-08-31T05:02:44;2.70;;;1.67;;
15679;SDS011;15488;48.114;11.532;2023-08-31T05:05:11;3.17;;;2.00;;
15679;SDS011;15488;48.114;11.532;2023-08-31T05:07:39;2.70;;;2.20;;
15679;SDS011;15488;48.114;11.532;2023-08-31T05:10:08;2.30;;;2.10;;
15679;SDS011;15488;48.114;11.532;2023-08-31T05:12:36;1.90;;;1.70;;
15679;SDS011;15488;48.114;11.532;2023-08-31T05:15:04;2.90;;;2.23;;
15679;SDS011;15488;48.114;11.532;2023-08-31T05:17:32;2.17;;;1.97;;
15679;SDS011;15488;48.114;11.532;2023-08-31T05:19:59;2.50;;;2.27;;
15679;SDS011;15488;48.114;11.532;2023-08-31T05:22:28;2.40;;;2.10;;
15679;SDS011;15488;48.114;11.532;2023-08-31T05:24:56;2.33;;;2.10;;
15679;SDS011;15488;48.114;11.532;2023-08-31T05:27:25;2.20;;;1.83;;
15679;SDS011;15488;48.114;11.532;2023-08-31T05:29:52;2.67;;;2.30;;
15679;SDS011;15488;48.114;11.532;2023-08-31T05:32:19;3.00;;;2.23;;
15679;SDS011;15488;48.114;11.532;2023-08-31T05:34:47;2.87;;;2.30;;
15679;SDS011;15488;48.114;11.532;2023-08-31T05:37:14;2.90;;;1.93;;
15679;SDS011;15488;48.114;11.532;2023-08-31T05:39:42;2.40;;;2.20;;
15679;SDS011;15488;48.114;11.532;2023-08-31T05:42:13;3.20;;;2.20;;
15679;SDS011;15488;48.114;11.532;2023-08-31T05:44:42;2.33;;;2.13;;
15679;SDS011;15488;48.114;11.532;2023-08-31T05:47:10;2.30;;;2.10;;
15679;SDS011;15488;48.114;11.532;2023-08-31T05:49:37;2.83;;;2.50;;
15679;SDS011;15488;48.114;11.532;2023-08-31T05:52:05;2.27;;;2.07;;
15679;SDS011;15488;48.114;11.532;2023-08-31T05:54:33;2.50;;;2.30;;
15679;SDS011;15488;48.114;11.532;2023-08-31T05:57:01;2.93;;;2.40;;
15679;SDS011;15488;48.114;11.532;2023-08-31T05:59:30;2.70;;;2.50;;
15679;SDS011;15488;48.114;11.532;2023-08-31T06:01:59;5.03;;;2.57;;
15679;SDS011;15488;48.114;11.532;2023-08-31T06:04:29;3.33;;;2.73;;
15679;SDS011;15488;48.114;11.532;2023-08-31T06:06:57;2.90;;;2.60;;
15679;SDS011;15488;48.114;11.532;2023-08-31T06:09:24;3.07;;;2.77;;
15679;SDS011;15488;48.114;11.532;2023-08-31T06:11:52;3.07;;;2.50;;
15679;SDS011;15488;48.114;11.532;2023-08-31T06:14:19;2.83;;;2.63;;
15679;SDS011;15488;48.114;11.532;2023-08-31T06:16:47;2.63;;;2.43;;
15679;SDS011;15488;48.114;11.532;2023-08-31T06:19:16;3.00;;;2.60;;
15679;SDS011;15488;48.114;11.532;2023-08-31T06:21:43;2.57;;;2.37;;
15679;SDS011;15488;48.114;11.532;2023-08-31T06:24:11;2.80;;;2.43;;
15679;SDS011;15488;48.114;11.532;2023-08-31T06:26:38;2.60;;;2.37;;
15679;SDS011;15488;48.114;11.532;2023-08-31T06:29:05;3.00;;;2.70;;
15679;SDS011;15488;48.114;11.532;2023-08-31T06:31:35;2.40;;;2.20;;
15679;SDS011;15488;48.114;11.532;2023-08-31T06:34:03;2.60;;;2.37;;
15679;SDS011;15488;48.114;11.532;2023-08-31T06:36:31;2.67;;;2.30;;
15679;SDS011;15488;48.114;11.532;2023-08-31T06:38:59;2.20;;;2.00;;
15679;SDS011;15488;48.114;11.532;2023-08-31T06:41:26;3.47;;;2.10;;
15679;SDS011;15488;48.114;11.532;2023-08-31T06:43:54;2.30;;;2.10;;
15679;SDS011;15488;48.114;11.532;2023-08-31T06:46:21;2.20;;;2.00;;
15679;SDS011;15488;48.114;11.532;2023-08-31T06:48:49;3.17;;;2.87;;
15679;SDS011;15488;48.114;11.532;2023-08-31T06:51:17;2.83;;;2.40;;
15679;SDS011;15488;48.114;11.532;2023-08-31T06:53:46;2.33;;;2.13;;
15679;SDS011;15488;48.114;11.532;2023-08-31T06:56:13;2.23;;;2.03;;
15679;SDS011;15488;48.114;11.532;2023-08-31T06:58:41;1.90;;;1.80;;
15679;SDS011;15488;48.114;11.532;2023-08-31T07:01:08;2.37;;;2.13;;
15679;SDS011;15488;48.114;11.532;2023-08-31T07:03:37;2.07;;;1.97;;
15679;SDS011;15488;48.114;11.532;2023-08-31T07:06:04;1.90;;;1.80;;
15679;SDS011;15488;48.114;11.532;2023-08-31T07:08:33;2.83;;;2.40;;
15679;SDS011;15488;48.114;11.532;2023-08-31T07:11:03;3.30;;;3.00;;
15679;SDS011;15488;48.114;11.532;2023-08-31T07:13:31;2.87;;;2.00;;
15679;SDS011;15488;48.114;11.532;2023-08-31T07:15:58;2.20;;;1.97;;
15679;SDS011;15488;48.114;11.532;2023-08-31T07:18:25;2.80;;;2.50;;
15679;SDS011;15488;48.114;11.532;2023-08-31T07:20:53;2.30;;;2.10;;
15679;SDS011;15488;48.114;11.532;2023-08-31T07:23:20;2.40;;;2.20;;
15679;SDS011;15488;48.114;11.532;2023-08-31T07:25:48;2.77;;;1.90;;
15679;SDS011;15488;48.114;11.532;2023-08-31T07:28:17;2.20;;;2.00;;
15679;SDS011;15488;48.114;11.532;2023-08-31T07:30:44;1.97;;;1.87;;
15679;SDS011;15488;48.114;11.532;2023-08-31T07:33:12;1.93;;;1.80;;
15679;SDS011;15488;48.114;11.532;2023-08-31T07:35:39;2.40;;;1.90;;
15679;SDS011;15488;48.114;11.532;2023-08-31T07:38:07;2.30;;;2.10;;
15679;SDS011;15488;48.114;11.532;2023-08-31T07:40:34;2.40;;;1.90;;
15679;SDS011;15488;48.114;11.532;2023-08-31T07:43:01;3.17;;;2.10;;
15679;SDS011;15488;48.114;11.532;2023-08-31T07:45:30;2.97;;;2.00;;
15679;SDS011;15488;48.114;11.532;2023-08-31T07:47:58;2.33;;;2.13;;
15679;SDS011;15488;48.114;11.532;2023-08-31T07:50:25;2.40;;;2.00;;
15679;SDS011;15488;48.114;11.532;2023-08-31T07:52:53;3.00;;;2.70;;
15679;SDS011;15488;48.114;11.532;2023-08-31T07:55:20;2.23;;;1.97;;
15679;SDS011;15488;48.114;11.532;2023-08-31T07:57:47;2.47;;;1.70;;
15679;SDS011;15488;48.114;11.532;2023-08-31T08:00:15;2.73;;;1.93;;
15679;SDS011;15488;48.114;11.532;2023-08-31T08:02:45;2.13;;;1.93;;
15679;SDS011;15488;48.114;11.532;2023-08-31T08:05:12;3.10;;;2.00;;
15679;SDS011;15488;48.114;11.532;2023-08-31T08:07:40;2.20;;;2.00;;
15679;SDS011;15488;48.114;11.532;2023-08-31T08:10:09;2.87;;;2.07;;
15679;SDS011;15488;48.114;11.532;2023-08-31T08:12:44;2.40;;;2.20;;
15679;SDS011;15488;48.114;11.532;2023-08-31T08:15:12;2.20;;;2.00;;
15679;SDS011;15488;48.114;11.532;2023-08-31T08:17:39;1.87;;;1.73;;
15679;SDS011;15488;48.114;11.532;2023-08-31T08:20:09;2.23;;;1.70;;
15679;SDS011;15488;48.114;11.532;2023-08-31T08:22:37;1.93;;;1.73;;
15679;SDS011;15488;48.114;11.532;2023-08-31T08:25:05;2.10;;;1.77;;
15679;SDS011;15488;48.114;11.532;2023-08-31T08:27:33;1.83;;;1.73;;
15679;SDS011;15488;48.114;11.532;2023-08-31T08:30:02;2.10;;;1.90;;
15679;SDS011;15488;48.114;11.532;2023-08-31T08:32:30;2.60;;;1.90;;
15679;SDS011;15488;48.114;11.532;2023-08-31T08:34:59;2.37;;;2.17;;
15679;SDS011;15488;48.114;11.532;2023-08-31T08:37:28;2.40;;;2.10;;
15679;SDS011;15488;48.114;11.532;2023-08-31T08:39:57;2.70;;;2.07;;
15679;SDS011;15488;48.114;11.532;2023-08-31T08:42:25;1.83;;;1.67;;
15679;SDS011;15488;48.114;11.532;2023-08-31T08:44:55;2.93;;;1.80;;
15679;SDS011;15488;48.114;11.532;2023-08-31T08:47:23;2.20;;;1.80;;
15679;SDS011;15488;48.114;11.532;2023-08-31T08:49:51;1.73;;;1.53;;
15679;SDS011;15488;48.114;11.532;2023-08-31T08:52:21;2.33;;;1.60;;
15679;SDS011;15488;48.114;11.532;2023-08-31T08:54:50;2.63;;;1.73;;
15679;SDS011;15488;48.114;11.532;2023-08-31T08:57:18;2.53;;;1.73;;
15679;SDS011;15488;48.114;11.532;2023-08-31T08:59:46;2.77;;;1.77;;
15679;SDS011;15488;48.114;11.532;2023-08-31T09:02:13;2.00;;;1.40;;
15679;SDS011;15488;48.114;11.532;2023-08-31T09:04:41;3.33;;;1.47;;
15679;SDS011;15488;48.114;11.532;2023-08-31T09:07:08;2.87;;;1.40;;
15679;SDS011;15488;48.114;11.532;2023-08-31T09:09:48;2.00;;;1.50;;
15679;SDS011;15488;48.114;11.532;2023-08-31T09:12:17;2.30;;;1.50;;
15679;SDS011;15488;48.114;11.532;2023-08-31T09:14:56;2.77;;;1.30;;
15679;SDS011;15488;48.114;11.532;2023-08-31T09:17:24;1.57;;;1.37;;
15679;SDS011;15488;48.114;11.532;2023-08-31T09:19:58;1.70;;;1.50;;
15679;SDS011;15488;48.114;11.532;2023-08-31T09:22:28;2.20;;;1.47;;
15679;SDS011;15488;48.114;11.532;2023-08-31T09:24:57;1.70;;;1.40;;
15679;SDS011;15488;48.114;11.532;2023-08-31T09:27:24;4.27;;;2.80;;
15679;SDS011;15488;48.114;11.532;2023-08-31T09:29:54;1.97;;;1.50;;
15679;SDS011;15488;48.114;11.532;2023-08-31T09:32:21;2.43;;;1.60;;
15679;SDS011;15488;48.114;11.532;2023-08-31T09:34:49;2.73;;;1.40;;
15679;SDS011;15488;48.114;11.532;2023-08-31T09:37:16;1.93;;;1.50;;
15679;SDS011;15488;48.114;11.532;2023-08-31T09:39:44;2.20;;;1.30;;
15679;SDS011;15488;48.114;11.532;2023-08-31T09:42:12;1.50;;;1.23;;
15679;SDS011;15488;48.114;11.532;2023-08-31T09:44:40;1.97;;;1.40;;
15679;SDS011;15488;48.114;11.532;2023-08-31T09:47:12;2.17;;;1.40;;
15679;SDS011;15488;48.114;11.532;2023-08-31T09:49:41;1.80;;;1.60;;
15679;SDS011;15488;48.114;11.532;2023-08-31T09:52:10;2.10;;;1.57;;
15679;SDS011;15488;48.114;11.532;2023-08-31T09:54:39;2.70;;;1.20;;
15679;SDS011;15488;48.114;11.532;2023-08-31T09:57:08;2.20;;;1.40;;
15679;SDS011;15488;48.114;11.532;2023-08-31T09:59:39;2.03;;;1.37;;
15679;SDS011;15488;48.114;11.532;2023-08-31T10:02:07;2.93;;;1.50;;
15679;SDS011;15488;48.114;11.532;2023-08-31T10:04:36;1.60;;;1.50;;
15679;SDS011;15488;48.114;11.532;2023-08-31T10:07:04;1.53;;;1.20;;
15679;SDS011;15488;48.114;11.532;2023-08-31T10:09:32;1.50;;;1.40;;
15679;SDS011;15488;48.114;11.532;2023-08-31T10:12:03;1.97;;;1.70;;
15679;SDS011;15488;48.114;11.532;2023-08-31T10:14:31;1.67;;;1.27;;
15679;SDS011;15488;48.114;11.532;2023-08-31T10:17:00;1.60;;;1.50;;
15679;SDS011;15488;48.114;11.532;2023-08-31T10:19:28;1.90;;;1.30;;
15679;SDS011;15488;48.114;11.532;2023-08-31T10:21:56;1.53;;;1.30;;
15679;SDS011;15488;48.114;11.532;2023-08-31T10:27:22;2.10;;;1.30;;
15679;SDS011;15488;48.114;11.532;2023-08-31T10:29:50;2.80;;;1.37;;
15679;SDS011;15488;48.114;11.532;2023-08-31T10:32:19;1.73;;;1.30;;
15679;SDS011;15488;48.114;11.532;2023-08-31T10:37:30;1.90;;;1.47;;
15679;SDS011;15488;48.114;11.532;2023-08-31T10:40:06;4.13;;;2.03;;
15679;SDS011;15488;48.114;11.532;2023-08-31T10:42:42;5.07;;;3.87;;
15679;SDS011;15488;48.114;11.532;2023-08-31T10:45:12;2.70;;;1.60;;
15679;SDS011;15488;48.114;11.532;2023-08-31T10:47:41;1.53;;;1.43;;
15679;SDS011;15488;48.114;11.532;2023-08-31T10:50:19;1.70;;;1.33;;
15679;SDS011;15488;48.114;11.532;2023-08-31T10:52:47;2.20;;;1.40;;
15679;SDS011;15488;48.114;11.532;2023-08-31T10:55:15;1.80;;;1.63;;
15679;SDS011;15488;48.114;11.532;2023-08-31T10:57:42;1.83;;;1.40;;
15679;SDS011;15488;48.114;11.532;2023-08-31T11:00:11;2.13;;;1.60;;
15679;SDS011;15488;48.114;11.532;2023-08-31T11:02:43;1.50;;;1.30;;
15679;SDS011;15488;48.114;11.532;2023-08-31T11:05:13;2.07;;;1.50;;
15679;SDS011;15488;48.114;11.532;2023-08-31T11:07:41;2.27;;;1.40;;
15679;SDS011;15488;48.114;11.532;2023-08-31T11:10:10;1.63;;;1.47;;
15679;SDS011;15488;48.114;11.532;2023-08-31T11:12:40;1.43;;;1.33;;
15679;SDS011;15488;48.114;11.532;2023-08-31T11:15:11;1.73;;;1.63;;
15679;SDS011;15488;48.114;11.532;2023-08-31T11:17:39;7.20;;;2.20;;
15679;SDS011;15488;48.114;11.532;2023-08-31T11:20:12;1.97;;;1.60;;
15679;SDS011;15488;48.114;11.532;2023-08-31T11:22:42;3.30;;;2.43;;
15679;SDS011;15488;48.114;11.532;2023-08-31T11:25:11;4.00;;;2.80;;
15679;SDS011;15488;48.114;11.532;2023-08-31T11:27:39;4.40;;;2.60;;
15679;SDS011;15488;48.114;11.532;2023-08-31T11:30:13;5.03;;;2.90;;
15679;SDS011;15488;48.114;11.532;2023-08-31T11:32:45;4.43;;;2.70;;
15679;SDS011;15488;48.114;11.532;2023-08-31T11:35:15;3.67;;;2.47;;
15679;SDS011;15488;48.114;11.532;2023-08-31T11:37:43;3.23;;;2.30;;
15679;SDS011;15488;48.114;11.532;2023-08-31T11:40:12;2.47;;;1.90;;
15679;SDS011;15488;48.114;11.532;2023-08-31T11:42:40;3.63;;;2.00;;
15679;SDS011;15488;48.114;11.532;2023-08-31T11:45:08;4.50;;;1.90;;
15679;SDS011;15488;48.114;11.532;2023-08-31T11:47:37;2.40;;;1.90;;
15679;SDS011;15488;48.114;11.532;2023-08-31T11:50:06;3.07;;;1.90;;
15679;SDS011;15488;48.114;11.532;2023-08-31T11:52:35;1.60;;;1.50;;
15679;SDS011;15488;48.114;11.532;2023-08-31T11:55:09;2.17;;;1.90;;
15679;SDS011;15488;48.114;11.532;2023-08-31T11:57:37;3.17;;;1.70;;
15679;SDS011;15488;48.114;11.532;2023-08-31T12:00:05;2.40;;;2.00;;
15679;SDS011;15488;48.114;11.532;2023-08-31T12:02:36;2.57;;;1.80;;
15679;SDS011;15488;48.114;11.532;2023-08-31T12:05:04;3.47;;;1.87;;
15679;SDS011;15488;48.114;11.532;2023-08-31T12:07:32;2.73;;;1.93;;
15679;SDS011;15488;48.114;11.532;2023-08-31T12:10:07;3.57;;;1.90;;
15679;SDS011;15488;48.114;11.532;2023-08-31T12:12:35;3.07;;;1.90;;
15679;SDS011;15488;48.114;11.532;2023-08-31T12:15:03;2.53;;;1.70;;
15679;SDS011;15488;48.114;11.532;2023-08-31T12:17:32;3.10;;;1.90;;
15679;SDS011;15488;48.114;11.532;2023-08-31T12:20:05;3.60;;;1.73;;
15679;SDS011;15488;48.114;11.532;2023-08-31T12:22:33;2.00;;;1.40;;
15679;SDS011;15488;48.114;11.532;2023-08-31T12:25:02;2.93;;;1.97;;
15679;SDS011;15488;48.114;11.532;2023-08-31T12:27:30;2.57;;;1.50;;
15679;SDS011;15488;48.114;11.532;2023-08-31T12:29:58;2.47;;;1.73;;
15679;SDS011;15488;48.114;11.532;2023-08-31T12:32:25;3.13;;;1.60;;
15679;SDS011;15488;48.114;11.532;2023-08-31T12:34:52;2.67;;;1.40;;
15679;SDS011;15488;48.114;11.532;2023-08-31T12:37:20;4.03;;;1.90;;
15679;SDS011;15488;48.114;11.532;2023-08-31T12:39:47;2.07;;;1.67;;
15679;SDS011;15488;48.114;11.532;2023-08-31T12:42:17;1.67;;;1.50;;
15679;SDS011;15488;48.114;11.532;2023-08-31T12:44:44;2.57;;;1.60;;
15679;SDS011;15488;48.114;11.532;2023-08-31T12:47:12;2.83;;;1.63;;
15679;SDS011;15488;48.114;11.532;2023-08-31T12:49:39;2.00;;;1.50;;
15679;SDS011;15488;48.114;11.532;2023-08-31T12:52:07;2.00;;;1.60;;
15679;SDS011;15488;48.114;11.532;2023-08-31T12:54:34;2.03;;;1.60;;
15679;SDS011;15488;48.114;11.532;2023-08-31T12:57:02;2.07;;;1.50;;
15679;SDS011;15488;48.114;11.532;2023-08-31T12:59:31;2.87;;;1.43;;
15679;SDS011;15488;48.114;11.532;2023-08-31T13:01:59;2.23;;;1.57;;
15679;SDS011;15488;48.114;11.532;2023-08-31T13:04:28;1.83;;;1.40;;
15679;SDS011;15488;48.114;11.532;2023-08-31T13:06:56;2.03;;;1.60;;
15679;SDS011;15488;48.114;11.532;2023-08-31T13:09:23;3.60;;;1.60;;
15679;SDS011;15488;48.114;11.532;2023-08-31T13:11:51;2.00;;;1.60;;
15679;SDS011;15488;48.114;11.532;2023-08-31T13:14:18;2.17;;;1.70;;
15679;SDS011;15488;48.114;11.532;2023-08-31T13:16:47;3.20;;;1.50;;
15679;SDS011;15488;48.114;11.532;2023-08-31T13:19:15;2.17;;;1.60;;
15679;SDS011;15488;48.114;11.532;2023-08-31T13:21:42;1.83;;;1.60;;
15679;SDS011;15488;48.114;11.532;2023-08-31T13:24:10;3.03;;;1.87;;
15679;SDS011;15488;48.114;11.532;2023-08-31T13:26:38;1.97;;;1.70;;
15679;SDS011;15488;48.114;11.532;2023-08-31T13:29:08;4.47;;;1.50;;
15679;SDS011;15488;48.114;11.532;2023-08-31T13:31:36;2.17;;;1.77;;
15679;SDS011;15488;48.114;11.532;2023-08-31T13:34:05;2.23;;;1.50;;
15679;SDS011;15488;48.114;11.532;2023-08-31T13:36:34;2.53;;;1.80;;
15679;SDS011;15488;48.114;11.532;2023-08-31T13:39:01;1.90;;;1.70;;
15679;SDS011;15488;48.114;11.532;2023-08-31T13:41:29;1.97;;;1.50;;
15679;SDS011;15488;48.114;11.532;2023-08-31T13:43:56;2.47;;;1.50;;
15679;SDS011;15488;48.114;11.532;2023-08-31T13:46:24;2.10;;;1.63;;
15679;SDS011;15488;48.114;11.532;2023-08-31T13:48:51;1.80;;;1.63;;
15679;SDS011;15488;48.114;11.532;2023-08-31T13:51:20;3.22;;;1.80;;
15679;SDS011;15488;48.114;11.532;2023-08-31T13:53:48;1.75;;;1.40;;
15679;SDS011;15488;48.114;11.532;2023-08-31T13:56:15;2.25;;;1.60;;
15679;SDS011;15488;48.114;11.532;2023-08-31T13:58:42;1.90;;;1.63;;
15679;SDS011;15488;48.114;11.532;2023-08-31T14:01:10;2.60;;;1.77;;
15679;SDS011;15488;48.114;11.532;2023-08-31T14:03:38;1.55;;;1.45;;
15679;SDS011;15488;48.114;11.532;2023-08-31T14:06:06;1.73;;;1.60;;
15679;SDS011;15488;48.114;11.532;2023-08-31T14:08:35;2.97;;;1.60;;
15679;SDS011;15488;48.114;11.532;2023-08-31T14:11:02;1.70;;;1.60;;
15679;SDS011;15488;48.114;11.532;2023-08-31T14:13:30;1.85;;;1.50;;
15679;SDS011;15488;48.114;11.532;2023-08-31T14:15:57;2.67;;;2.30;;
15679;SDS011;15488;48.114;11.532;2023-08-31T14:18:25;2.42;;;2.22;;
15679;SDS011;15488;48.114;11.532;2023-08-31T14:20:54;3.28;;;1.67;;
15679;SDS011;15488;48.114;11.532;2023-08-31T14:23:23;2.28;;;1.98;;
15679;SDS011;15488;48.114;11.532;2023-08-31T14:25:51;2.22;;;1.63;;
15679;SDS011;15488;48.114;11.532;2023-08-31T14:28:19;3.28;;;1.75;;
15679;SDS011;15488;48.114;11.532;2023-08-31T14:30:46;2.15;;;1.60;;
15679;SDS011;15488;48.114;11.532;2023-08-31T14:33:14;2.05;;;1.73;;
15679;SDS011;15488;48.114;11.532;2023-08-31T14:35:41;2.70;;;1.75;;
15679;SDS011;15488;48.114;11.532;2023-08-31T14:38:10;2.13;;;1.70;;
15679;SDS011;15488;48.114;11.532;2023-08-31T14:40:38;3.15;;;1.63;;
15679;SDS011;15488;48.114;11.532;2023-08-31T14:43:07;3.08;;;1.50;;
15679;SDS011;15488;48.114;11.532;2023-08-31T14:45:36;2.00;;;1.80;;